Decoded Metar for PABI (DELTA JUNCTION in AK, USA) (IATA:BIG) | Meteo·Mobile Aviation Weather
aviador You're here:

PABI Decoded Metar

DELTA JUNCTION in AK, USA
Report Time2019-01-16 05:53:00
UTC Time2019-01-16 06:55:24
Flight Rules vfr VFR
Wind110° at 11 kt
W.Decomp.*RWY 10: 10.7 kt HW 2.5 kt LCW
RWY 07: 10.5 kt HW 3.2 kt RCW
RWY 01: 2.5 kt HW 10.7 kt RCW
W.Rank110° ranks 1
Current wind is below 110° avg. (11.8)
Visibility9999 m
Phenomena:N/A
Clouds:N/A
Expected CloudBase > 1,200 ft AGL from Temp-Dew spread
CeilingNone
Temp-13°C (ISA -25)
Dew Point-16°C (78% RH)
AAT-20.4°C
QNH1012 hPa
Density Alt-1,870 ft
Elevation1,266 ft
Report Wrong Elevation
Raw Report
PABI 160553Z 11011KT 10SM CLR M13/M16 A2989=

Extra information for PABI:More info

Metar Taf Metar & Taf Last 4 Metars F.Rules Stats Wind Profile Meteogram Temp Stats Airport Information Weather charts Add Link Nearby VenuesMetar ALERT Operation Metar Decoded Social comments

AIRNAV info for PABI